createdAt,value
2024-02-19T00:00:39.562Z,-25.18
2024-02-19T00:03:47.029Z,-25.08
2024-02-19T00:06:53.646Z,-24.83
2024-02-19T00:10:00.196Z,-24.71
2024-02-19T00:13:04.023Z,-24.29
2024-02-19T00:16:10.230Z,-24.02
2024-02-19T00:19:13.435Z,-23.89
2024-02-19T00:22:16.534Z,-23.68
2024-02-19T00:25:19.968Z,-23.40
2024-02-19T00:28:24.130Z,-22.87
2024-02-19T00:31:29.196Z,-22.64
2024-02-19T00:34:34.002Z,-22.85
2024-02-19T00:37:37.158Z,-23.11
2024-02-19T00:40:42.347Z,-23.42
2024-02-19T00:43:48.570Z,-23.50
2024-02-19T00:46:52.088Z,-23.66
2024-02-19T00:49:56.797Z,-23.67
2024-02-19T00:53:00.470Z,-23.71
2024-02-19T00:56:03.589Z,-23.84
2024-02-19T00:59:09.416Z,-23.89
2024-02-19T01:02:12.382Z,-23.95
2024-02-19T01:05:16.528Z,-24.01
2024-02-19T01:08:20.442Z,-23.96
2024-02-19T01:11:24.046Z,-23.96
2024-02-19T01:14:27.159Z,-23.94
2024-02-19T01:17:31.150Z,-23.74
2024-02-19T01:20:34.917Z,-23.68
2024-02-19T01:23:38.457Z,-23.64
2024-02-19T01:26:42.276Z,-23.63
2024-02-19T01:29:49.295Z,-23.51
2024-02-19T01:32:53.070Z,-23.46
2024-02-19T01:35:57.447Z,-23.32
2024-02-19T01:39:00.436Z,-23.18
2024-02-19T01:42:05.723Z,-23.12
2024-02-19T01:45:30.238Z,-23.05
2024-02-19T01:48:34.369Z,-23.12
2024-02-19T01:51:40.026Z,-23.16
2024-02-19T01:54:47.437Z,-23.01
2024-02-19T01:57:53.373Z,-22.94
2024-02-19T02:01:00.796Z,-22.95
2024-02-19T02:04:07.400Z,-22.79
2024-02-19T02:07:11.790Z,-22.83
2024-02-19T02:10:15.171Z,-22.76
2024-02-19T02:13:20.806Z,-22.80
2024-02-19T02:16:33.335Z,-22.69
2024-02-19T02:19:38.693Z,-22.64
2024-02-19T02:22:43.943Z,-22.48
2024-02-19T02:25:47.046Z,-22.53
2024-02-19T02:28:50.509Z,-22.42
2024-02-19T02:31:54.309Z,-22.46
2024-02-19T02:34:58.017Z,-22.48
2024-02-19T02:38:01.940Z,-22.36
2024-02-19T02:41:06.183Z,-22.20
2024-02-19T02:44:11.502Z,-22.12
2024-02-19T02:47:15.064Z,-21.97
2024-02-19T02:50:18.986Z,-21.97
2024-02-19T02:53:24.146Z,-21.89
2024-02-19T02:56:31.104Z,-21.71
2024-02-19T02:59:34.681Z,-21.63
2024-02-19T03:02:38.662Z,-21.49
2024-02-19T03:05:42.066Z,-21.30
2024-02-19T03:08:50.495Z,-21.15
2024-02-19T03:11:54.883Z,-21.11
2024-02-19T03:14:59.066Z,-20.93
2024-02-19T03:18:03.644Z,-20.97
2024-02-19T03:21:09.593Z,-20.93
2024-02-19T03:24:13.021Z,-20.73
2024-02-19T03:27:16.912Z,-20.72
2024-02-19T03:30:21.647Z,-20.59
2024-02-19T03:33:28.393Z,-20.57
2024-02-19T03:36:32.557Z,-20.52
2024-02-19T03:39:35.604Z,-20.41
2024-02-19T03:42:39.740Z,-20.30
2024-02-19T03:45:43.579Z,-20.41
2024-02-19T03:48:49.212Z,-20.34
2024-02-19T03:51:53.330Z,-20.23
2024-02-19T03:54:57.560Z,-20.31
2024-02-19T03:58:01.543Z,-20.26
2024-02-19T04:01:08.345Z,-20.09
2024-02-19T04:04:12.457Z,-20.08
2024-02-19T04:07:16.846Z,-20.06
2024-02-19T04:10:20.673Z,-20.03
2024-02-19T04:13:24.895Z,-19.95
2024-02-19T04:16:31.499Z,-20.20
2024-02-19T04:19:35.897Z,-20.33
2024-02-19T04:22:42.798Z,-20.38
2024-02-19T04:25:46.681Z,-20.34
2024-02-19T04:28:50.495Z,-20.08
2024-02-19T04:31:54.745Z,-19.85
2024-02-19T04:35:00.840Z,-19.74
2024-02-19T04:38:06.366Z,-19.57
2024-02-19T04:41:10.106Z,-19.70
2024-02-19T04:44:13.682Z,-19.67
2024-02-19T04:47:17.486Z,-19.49
2024-02-19T04:50:21.001Z,-19.47
2024-02-19T04:53:24.654Z,-19.19
2024-02-19T04:56:31.199Z,-18.98
2024-02-19T04:59:34.505Z,-18.82
2024-02-19T05:02:38.309Z,-18.80
2024-02-19T05:05:42.039Z,-18.68
2024-02-19T05:08:46.488Z,-18.71
2024-02-19T05:11:50.491Z,-18.53
2024-02-19T05:14:57.480Z,-18.44
2024-02-19T05:18:00.590Z,-18.61
2024-02-19T05:21:04.899Z,-18.78
2024-02-19T05:24:08.579Z,-18.71
2024-02-19T05:27:11.909Z,-18.43
2024-02-19T05:30:15.229Z,-18.32
2024-02-19T05:33:20.430Z,-18.18
2024-02-19T05:36:24.181Z,-18.12
2024-02-19T05:39:31.392Z,-17.98
2024-02-19T05:42:38.800Z,-17.80
2024-02-19T05:45:43.642Z,-17.94
2024-02-19T05:48:47.712Z,-17.90
2024-02-19T05:51:50.921Z,-18.00
2024-02-19T05:55:00.434Z,-18.21
2024-02-19T05:58:04.702Z,-18.32
2024-02-19T06:01:08.024Z,-18.14
2024-02-19T06:04:11.207Z,-17.93
2024-02-19T06:07:15.079Z,-17.94
2024-02-19T06:10:19.485Z,-17.86
2024-02-19T06:13:22.693Z,-17.94
2024-02-19T06:16:26.804Z,-17.90
2024-02-19T06:19:32.122Z,-17.65
2024-02-19T06:22:36.286Z,-17.81
2024-02-19T06:25:40.788Z,-17.80
2024-02-19T06:28:43.969Z,-17.94
2024-02-19T06:31:49.571Z,-17.98
2024-02-19T06:34:53.574Z,-18.07
2024-02-19T06:37:57.905Z,-18.01
2024-02-19T06:41:02.115Z,-17.74
2024-02-19T06:44:05.392Z,-17.58
2024-02-19T06:47:08.761Z,-17.55
2024-02-19T06:50:12.622Z,-17.36
2024-02-19T06:53:16.489Z,-17.32
2024-02-19T06:56:19.742Z,-17.25
2024-02-19T06:59:23.853Z,-17.15
2024-02-19T07:02:33.205Z,-17.03
2024-02-19T07:05:36.771Z,-16.87
2024-02-19T07:08:42.163Z,-16.92
2024-02-19T07:11:45.574Z,-16.93
2024-02-19T07:14:48.747Z,-17.00
2024-02-19T07:17:55.166Z,-17.04
2024-02-19T07:20:58.401Z,-16.94
2024-02-19T07:24:02.585Z,-17.01
2024-02-19T07:27:05.858Z,-16.93
2024-02-19T07:30:11.395Z,-16.83
2024-02-19T07:33:14.479Z,-16.90
2024-02-19T07:36:17.573Z,-16.84
2024-02-19T07:39:21.525Z,-16.87
2024-02-19T07:42:24.477Z,-16.87
2024-02-19T07:45:30.307Z,-17.04
2024-02-19T07:48:33.731Z,-16.93
2024-02-19T07:51:36.866Z,-16.52
2024-02-19T07:54:40.169Z,-16.59
2024-02-19T07:57:44.096Z,-16.72
2024-02-19T08:00:47.852Z,-16.79
2024-02-19T08:03:54.645Z,-16.97
2024-02-19T08:07:01.172Z,-17.20
2024-02-19T08:10:05.431Z,-17.32
2024-02-19T08:13:13.605Z,-17.35
2024-02-19T08:16:17.539Z,-17.41
2024-02-19T08:19:22.417Z,-17.45
2024-02-19T08:22:26.479Z,-17.32
2024-02-19T08:25:33.958Z,-17.22
2024-02-19T08:28:37.568Z,-17.18
2024-02-19T08:31:42.114Z,-17.14
2024-02-19T08:34:46.768Z,-17.15
2024-02-19T08:37:50.634Z,-17.13
2024-02-19T08:40:56.136Z,-17.20
2024-02-19T08:44:00.341Z,-17.20
2024-02-19T08:47:09.535Z,-17.17
2024-02-19T08:50:15.469Z,-17.18
2024-02-19T08:53:18.657Z,-17.18
2024-02-19T08:56:22.296Z,-17.25
2024-02-19T08:59:26.079Z,-17.31
2024-02-19T09:02:32.693Z,-17.31
2024-02-19T09:05:38.503Z,-17.38
2024-02-19T09:08:43.939Z,-17.52
2024-02-19T09:11:47.461Z,-17.67
2024-02-19T09:14:52.082Z,-17.74
2024-02-19T09:17:55.201Z,-17.87
2024-02-19T09:20:59.359Z,-17.98
2024-02-19T09:24:03.164Z,-18.07
2024-02-19T09:27:06.792Z,-18.09
2024-02-19T09:30:09.702Z,-18.19
2024-02-19T09:33:12.972Z,-18.29
2024-02-19T09:36:19.737Z,-18.37
2024-02-19T09:39:23.882Z,-18.44
2024-02-19T09:42:37.531Z,-18.54
2024-02-19T09:45:40.586Z,-18.60
2024-02-19T09:48:49.944Z,-18.68
2024-02-19T09:51:57.275Z,-18.81
2024-02-19T09:55:00.757Z,-18.89
2024-02-19T09:58:05.758Z,-18.92
2024-02-19T10:01:09.218Z,-19.00
2024-02-19T10:04:14.801Z,-19.06
2024-02-19T10:07:24.298Z,-19.15
2024-02-19T10:10:32.648Z,-19.23
2024-02-19T10:13:43.074Z,-19.24
2024-02-19T10:16:53.710Z,-19.27
2024-02-19T10:20:10.143Z,-19.34
2024-02-19T10:23:16.664Z,-19.37
2024-02-19T10:26:19.667Z,-19.43
2024-02-19T10:29:23.581Z,-19.44
2024-02-19T10:32:29.405Z,-19.47
2024-02-19T10:35:35.701Z,-19.49
2024-02-19T10:38:38.858Z,-19.49
2024-02-19T10:41:42.895Z,-19.53
2024-02-19T10:44:46.500Z,-19.58
2024-02-19T10:47:51.546Z,-19.58
2024-02-19T10:50:54.667Z,-19.60
2024-02-19T10:54:05.871Z,-19.57
2024-02-19T10:57:09.469Z,-19.61
2024-02-19T11:00:13.497Z,-19.65
2024-02-19T11:03:19.404Z,-19.67
2024-02-19T11:06:26.174Z,-19.70
2024-02-19T11:09:35.377Z,-19.72
2024-02-19T11:12:40.408Z,-19.77
2024-02-19T11:15:44.291Z,-19.78
2024-02-19T11:18:48.281Z,-19.75
2024-02-19T11:22:01.958Z,-19.72
2024-02-19T11:25:05.432Z,-19.78
2024-02-19T11:28:08.606Z,-19.88
2024-02-19T11:31:16.019Z,-20.02
2024-02-19T11:34:22.948Z,-20.13
2024-02-19T11:37:26.681Z,-20.26
2024-02-19T11:40:36.637Z,-20.36
2024-02-19T11:43:40.822Z,-20.42
2024-02-19T11:46:45.232Z,-20.47
2024-02-19T11:49:51.567Z,-20.49
2024-02-19T11:52:59.595Z,-20.49
2024-02-19T11:56:04.066Z,-20.55
2024-02-19T11:59:09.648Z,-20.55
2024-02-19T12:02:17.087Z,-20.58
2024-02-19T12:05:24.540Z,-20.55
2024-02-19T12:08:35.791Z,-20.54
2024-02-19T12:11:41.664Z,-20.57
2024-02-19T12:14:46.096Z,-20.62
2024-02-19T12:17:54.853Z,-20.65
2024-02-19T12:20:58.289Z,-20.72
2024-02-19T12:24:02.779Z,-20.80
2024-02-19T12:27:07.344Z,-20.85
2024-02-19T12:30:11.292Z,-20.87
2024-02-19T12:33:15.103Z,-20.87
2024-02-19T12:36:18.943Z,-20.90
2024-02-19T12:39:22.441Z,-20.92
2024-02-19T12:42:25.837Z,-20.95
2024-02-19T12:45:28.963Z,-20.96
2024-02-19T12:48:36.209Z,-20.93
2024-02-19T12:51:40.446Z,-20.90
2024-02-19T12:54:48.673Z,-20.99
2024-02-19T12:57:53.028Z,-20.96
2024-02-19T13:00:56.216Z,-20.96
2024-02-19T13:04:03.572Z,-21.03
2024-02-19T13:07:08.054Z,-21.07
2024-02-19T13:10:12.303Z,-21.07
2024-02-19T13:13:19.153Z,-21.11
2024-02-19T13:16:23.376Z,-21.13
2024-02-19T13:19:27.824Z,-21.08
2024-02-19T13:22:34.109Z,-21.08
2024-02-19T13:25:38.039Z,-21.08
2024-02-19T13:28:42.369Z,-21.11
2024-02-19T13:31:46.241Z,-21.23
2024-02-19T13:34:50.737Z,-21.24
2024-02-19T13:37:54.597Z,-21.25
2024-02-19T13:41:00.610Z,-21.32
2024-02-19T13:44:04.715Z,-21.41
2024-02-19T13:47:08.935Z,-21.41
2024-02-19T13:50:13.698Z,-21.39
2024-02-19T13:53:18.236Z,-21.46
2024-02-19T13:56:21.913Z,-21.53
2024-02-19T13:59:26.199Z,-21.58
2024-02-19T14:02:29.998Z,-21.60
2024-02-19T14:05:36.698Z,-21.74
2024-02-19T14:08:40.961Z,-21.81
2024-02-19T14:11:45.293Z,-21.91
2024-02-19T14:14:48.984Z,-22.00
2024-02-19T14:17:54.899Z,-22.07
2024-02-19T14:20:58.623Z,-22.02
2024-02-19T14:24:02.701Z,-22.01
2024-02-19T14:27:08.974Z,-22.07
2024-02-19T14:30:17.676Z,-21.94
2024-02-19T14:33:21.144Z,-21.90
2024-02-19T14:36:26.280Z,-21.91
2024-02-19T14:39:32.134Z,-21.87
2024-02-19T14:42:39.536Z,-21.83
2024-02-19T14:45:46.097Z,-21.86
2024-02-19T14:48:49.388Z,-21.83
2024-02-19T14:51:53.400Z,-21.81
2024-02-19T14:54:58.008Z,-21.73
2024-02-19T14:58:01.624Z,-21.73
2024-02-19T15:01:06.075Z,-21.66
2024-02-19T15:04:12.735Z,-21.65
2024-02-19T15:07:16.989Z,-21.67
2024-02-19T15:10:26.357Z,-21.67
2024-02-19T15:13:29.686Z,-21.66
2024-02-19T15:16:39.340Z,-21.69
2024-02-19T15:19:43.602Z,-21.74
2024-02-19T15:22:48.316Z,-21.76
2024-02-19T15:25:51.428Z,-21.74
2024-02-19T15:28:58.042Z,-21.77
2024-02-19T15:32:02.777Z,-21.81
2024-02-19T15:35:07.358Z,-21.84
2024-02-19T15:38:13.620Z,-21.90
2024-02-19T15:41:21.645Z,-21.90
2024-02-19T15:44:27.310Z,-21.87
2024-02-19T15:47:32.986Z,-21.90
2024-02-19T15:50:40.693Z,-21.89
2024-02-19T15:53:43.829Z,-21.86
2024-02-19T15:56:47.962Z,-21.90
2024-02-19T15:59:54.108Z,-21.96
2024-02-19T16:02:57.353Z,-22.01
2024-02-19T16:06:03.605Z,-22.05
2024-02-19T16:09:09.840Z,-22.11
2024-02-19T16:12:12.927Z,-22.12
2024-02-19T16:15:15.687Z,-22.21
2024-02-19T16:18:19.512Z,-22.24
2024-02-19T16:21:23.514Z,-22.29
2024-02-19T16:24:30.715Z,-22.38
2024-02-19T16:27:39.260Z,-22.46
2024-02-19T16:30:43.600Z,-22.48
2024-02-19T16:33:47.127Z,-22.49
2024-02-19T16:36:51.042Z,-22.53
2024-02-19T16:39:58.104Z,-22.59
2024-02-19T16:43:02.458Z,-22.64
2024-02-19T16:46:06.485Z,-22.66
2024-02-19T16:49:10.938Z,-22.66
2024-02-19T16:52:15.020Z,-22.64
2024-02-19T16:55:18.408Z,-22.70
2024-02-19T16:58:21.793Z,-22.66
2024-02-19T17:01:25.884Z,-22.66
2024-02-19T17:04:30.125Z,-22.64
2024-02-19T17:07:34.249Z,-22.64
2024-02-19T17:10:41.584Z,-22.63
2024-02-19T17:13:44.849Z,-22.59
2024-02-19T17:16:52.487Z,-22.59
2024-02-19T17:19:56.739Z,-22.62
2024-02-19T17:23:00.837Z,-22.64
2024-02-19T17:26:05.394Z,-22.66
2024-02-19T17:29:09.235Z,-22.67
2024-02-19T17:32:15.552Z,-22.76
2024-02-19T17:35:19.713Z,-22.76
2024-02-19T17:38:23.207Z,-22.81
2024-02-19T17:41:27.661Z,-22.85
2024-02-19T17:44:33.247Z,-22.84
2024-02-19T17:47:38.864Z,-22.94
2024-02-19T17:50:42.341Z,-22.91
2024-02-19T17:53:45.637Z,-22.92
2024-02-19T17:56:49.478Z,-22.92
2024-02-19T17:59:52.731Z,-22.95
2024-02-19T18:02:55.821Z,-23.01
2024-02-19T18:06:00.951Z,-22.98
2024-02-19T18:09:05.493Z,-23.00
2024-02-19T18:12:10.438Z,-23.01
2024-02-19T18:15:15.400Z,-22.97
2024-02-19T18:18:18.639Z,-22.98
2024-02-19T18:21:22.483Z,-23.08
2024-02-19T18:24:26.039Z,-23.09
2024-02-19T18:27:29.148Z,-23.07
2024-02-19T18:30:32.471Z,-23.07
2024-02-19T18:33:35.458Z,-23.07
2024-02-19T18:36:41.890Z,-23.11
2024-02-19T18:39:45.604Z,-23.16
2024-02-19T18:42:48.871Z,-23.37
2024-02-19T18:45:52.142Z,-23.57
2024-02-19T18:48:59.686Z,-23.61
2024-02-19T18:52:05.599Z,-23.74
2024-02-19T18:55:09.784Z,-23.67
2024-02-19T18:58:13.505Z,-23.53
2024-02-19T19:01:17.050Z,-23.46
2024-02-19T19:04:20.229Z,-23.45
2024-02-19T19:07:24.273Z,-23.47
2024-02-19T19:10:28.220Z,-23.49
2024-02-19T19:13:33.666Z,-23.46
2024-02-19T19:16:40.046Z,-23.49
2024-02-19T19:19:44.066Z,-23.51
2024-02-19T19:22:48.017Z,-23.50
2024-02-19T19:25:50.719Z,-23.50
2024-02-19T19:28:54.811Z,-23.66
2024-02-19T19:31:58.278Z,-23.67
2024-02-19T19:35:02.997Z,-23.61
2024-02-19T19:38:06.555Z,-23.57
2024-02-19T19:41:11.099Z,-23.54
2024-02-19T19:44:18.769Z,-23.49
2024-02-19T19:47:23.553Z,-23.51
2024-02-19T19:50:27.312Z,-23.49
2024-02-19T19:53:32.457Z,-23.51
2024-02-19T19:56:39.124Z,-23.49
2024-02-19T19:59:50.185Z,-23.49
2024-02-19T20:02:55.040Z,-23.51
2024-02-19T20:05:59.263Z,-23.58
2024-02-19T20:09:04.624Z,-23.64
2024-02-19T20:12:09.267Z,-23.71
2024-02-19T20:15:13.275Z,-23.74
2024-02-19T20:18:17.377Z,-23.75
2024-02-19T20:21:22.520Z,-23.79
2024-02-19T20:24:26.731Z,-23.77
2024-02-19T20:27:30.030Z,-23.78
2024-02-19T20:30:34.182Z,-23.86
2024-02-19T20:33:44.119Z,-23.86
2024-02-19T20:36:48.587Z,-23.84
2024-02-19T20:39:51.509Z,-23.77
2024-02-19T20:42:59.876Z,-23.78
2024-02-19T20:46:05.154Z,-23.78
2024-02-19T20:49:09.244Z,-23.84
2024-02-19T20:52:13.276Z,-23.81
2024-02-19T20:55:17.643Z,-23.75
2024-02-19T20:58:20.746Z,-23.81
2024-02-19T21:01:25.383Z,-23.79
2024-02-19T21:04:29.605Z,-23.77
2024-02-19T21:07:35.238Z,-23.78
2024-02-19T21:10:41.223Z,-23.78
2024-02-19T21:13:44.968Z,-23.79
2024-02-19T21:16:48.314Z,-23.85
2024-02-19T21:19:51.664Z,-23.88
2024-02-19T21:22:55.685Z,-23.91
2024-02-19T21:25:59.400Z,-23.92
2024-02-19T21:29:02.784Z,-23.92
2024-02-19T21:32:07.019Z,-23.91
2024-02-19T21:35:13.330Z,-23.96
2024-02-19T21:38:16.945Z,-23.95
2024-02-19T21:41:21.148Z,-23.92
2024-02-19T21:44:24.925Z,-23.88
2024-02-19T21:47:28.985Z,-23.89
2024-02-19T21:50:35.522Z,-23.96
2024-02-19T21:53:41.478Z,-24.01
2024-02-19T21:56:45.374Z,-23.98
2024-02-19T21:59:54.470Z,-23.95
2024-02-19T22:02:58.560Z,-23.91
2024-02-19T22:06:02.525Z,-23.89
2024-02-19T22:09:06.106Z,-23.86
2024-02-19T22:12:10.258Z,-23.91
2024-02-19T22:15:14.336Z,-23.88
2024-02-19T22:18:17.490Z,-23.91
2024-02-19T22:21:21.353Z,-23.91
2024-02-19T22:24:26.163Z,-23.96
2024-02-19T22:27:29.846Z,-23.94
2024-02-19T22:30:34.495Z,-23.99
2024-02-19T22:33:38.307Z,-24.01
2024-02-19T22:36:47.370Z,-23.98
2024-02-19T22:39:50.467Z,-23.99
2024-02-19T22:42:53.728Z,-24.02
2024-02-19T22:45:58.929Z,-24.02
2024-02-19T22:49:03.251Z,-23.99
2024-02-19T22:52:08.543Z,-23.96
2024-02-19T22:55:12.851Z,-23.95
2024-02-19T22:58:29.300Z,-23.94
2024-02-19T23:01:38.026Z,-23.86
2024-02-19T23:04:48.967Z,-23.86
2024-02-19T23:07:55.507Z,-23.84
2024-02-19T23:10:58.808Z,-23.92
2024-02-19T23:14:01.981Z,-23.91
2024-02-19T23:17:05.329Z,-23.86
2024-02-19T23:20:12.539Z,-23.88
2024-02-19T23:23:16.751Z,-23.84
2024-02-19T23:26:19.880Z,-23.85
2024-02-19T23:29:23.277Z,-23.85
2024-02-19T23:32:30.151Z,-23.77
2024-02-19T23:35:34.863Z,-23.75
2024-02-19T23:38:41.763Z,-23.74
2024-02-19T23:41:44.758Z,-23.71
2024-02-19T23:44:49.314Z,-23.68
2024-02-19T23:47:53.185Z,-23.68
2024-02-19T23:50:58.501Z,-23.67
2024-02-19T23:54:08.966Z,-23.66
2024-02-19T23:57:12.056Z,-23.60
